createdAt,value
2023-04-01T00:01:56.004Z,12
2023-04-01T00:04:26.691Z,12
2023-04-01T00:06:57.103Z,12
2023-04-01T00:09:29.814Z,12
2023-04-01T00:11:58.693Z,12
2023-04-01T00:14:29.289Z,16
2023-04-01T00:16:59.847Z,16
2023-04-01T00:19:30.260Z,13
2023-04-01T00:22:00.623Z,12
2023-04-01T00:24:30.933Z,16
2023-04-01T00:27:01.224Z,12
2023-04-01T00:29:31.289Z,16
2023-04-01T00:32:02.028Z,16
2023-04-01T00:34:32.771Z,12
2023-04-01T00:37:03.128Z,12
2023-04-01T00:39:34.020Z,9
2023-04-01T00:42:04.963Z,12
2023-04-01T00:44:36.289Z,12
2023-04-01T00:47:07.358Z,12
2023-04-01T00:49:38.190Z,8
2023-04-01T00:52:09.659Z,12
2023-04-01T00:54:40.240Z,12
2023-04-01T00:57:10.651Z,16
2023-04-01T00:59:41.336Z,12
2023-04-01T01:02:11.984Z,13
2023-04-01T01:04:42.495Z,12
2023-04-01T01:07:13.452Z,12
2023-04-01T01:09:44.610Z,12
2023-04-01T01:12:15.298Z,16
2023-04-01T01:14:46.101Z,9
2023-04-01T01:17:16.973Z,12
2023-04-01T01:19:47.719Z,8
2023-04-01T01:22:18.559Z,8
2023-04-01T01:24:49.465Z,8
2023-04-01T01:27:20.227Z,8
2023-04-01T01:29:50.538Z,12
2023-04-01T01:32:21.143Z,12
2023-04-01T01:34:51.697Z,8
2023-04-01T01:37:22.872Z,12
2023-04-01T01:39:53.931Z,10
2023-04-01T01:42:24.934Z,8
2023-04-01T01:44:55.968Z,8
2023-04-01T01:47:26.663Z,8
2023-04-01T01:49:57.257Z,12
2023-04-01T01:52:27.531Z,8
2023-04-01T01:54:58.199Z,8
2023-04-01T01:57:28.873Z,9
2023-04-01T01:59:59.501Z,8
2023-04-01T02:02:30.247Z,8
2023-04-01T02:05:00.833Z,12
2023-04-01T02:07:31.960Z,9
2023-04-01T02:10:02.425Z,10
2023-04-01T02:12:33.001Z,8
2023-04-01T02:15:03.720Z,9
2023-04-01T02:17:34.482Z,8
2023-04-01T02:20:05.369Z,12
2023-04-01T02:22:36.596Z,8
2023-04-01T02:25:06.693Z,10
2023-04-01T02:27:37.762Z,9
2023-04-01T02:30:08.602Z,10
2023-04-01T02:32:39.294Z,8
2023-04-01T02:35:10.041Z,16
2023-04-01T02:37:40.915Z,13
2023-04-01T02:40:11.539Z,9
2023-04-01T02:42:42.507Z,10
2023-04-01T02:45:13.699Z,12
2023-04-01T02:47:44.881Z,12
2023-04-01T02:50:16.043Z,14
2023-04-01T02:52:46.805Z,13
2023-04-01T02:55:17.944Z,16
2023-04-01T02:57:48.616Z,13
2023-04-01T03:00:19.519Z,13
2023-04-01T03:02:49.991Z,12
2023-04-01T03:05:20.984Z,12
2023-04-01T03:07:51.465Z,12
2023-04-01T03:10:22.800Z,16
2023-04-01T03:12:53.793Z,17
2023-04-01T03:15:24.455Z,16
2023-04-01T03:17:55.090Z,16
2023-04-01T03:20:25.939Z,16
2023-04-01T03:22:56.458Z,16
2023-04-01T03:25:27.793Z,21
2023-04-01T03:27:58.259Z,16
2023-04-01T03:30:29.431Z,20
2023-04-01T03:33:00.154Z,13
2023-04-01T03:35:31.048Z,16
2023-04-01T03:38:01.667Z,16
2023-04-01T03:40:32.304Z,15
2023-04-01T03:43:03.944Z,12
2023-04-01T03:45:35.069Z,16
2023-04-01T03:48:05.544Z,13
2023-04-01T03:50:36.520Z,19
2023-04-01T03:53:06.886Z,17
2023-04-01T03:55:37.555Z,20
2023-04-01T03:58:08.424Z,24
2023-04-01T04:00:39.506Z,16
2023-04-01T04:03:09.975Z,16
2023-04-01T04:05:40.798Z,16
2023-04-01T04:08:11.997Z,16
2023-04-01T04:10:42.928Z,20
2023-04-01T04:13:14.032Z,20
2023-04-01T04:15:45.033Z,16
2023-04-01T04:18:16.058Z,24
2023-04-01T04:20:46.690Z,20
2023-04-01T04:23:17.039Z,25
2023-04-01T04:25:47.925Z,17
2023-04-01T04:28:18.409Z,21
2023-04-01T04:30:49.104Z,28
2023-04-01T04:33:20.112Z,24
2023-04-01T04:35:50.784Z,24
2023-04-01T04:38:21.135Z,22
2023-04-01T04:40:51.528Z,25
2023-04-01T04:43:22.745Z,19
2023-04-01T04:45:53.075Z,20
2023-04-01T04:48:23.854Z,20
2023-04-01T04:50:55.121Z,24
2023-04-01T04:53:25.722Z,40
2023-04-01T04:55:56.243Z,33
2023-04-01T04:58:26.519Z,22
2023-04-01T05:00:57.168Z,17
2023-04-01T05:03:27.725Z,16
2023-04-01T05:05:58.409Z,17
2023-04-01T05:08:29.057Z,18
2023-04-01T05:10:59.686Z,17
2023-04-01T05:13:32.421Z,18
2023-04-01T05:16:02.817Z,16
2023-04-01T05:18:33.241Z,16
2023-04-01T05:21:04.557Z,16
2023-04-01T05:23:35.145Z,20
2023-04-01T05:26:05.538Z,17
2023-04-01T05:28:36.176Z,16
2023-04-01T05:31:07.214Z,20
2023-04-01T05:33:38.104Z,20
2023-04-01T05:36:09.231Z,20
2023-04-01T05:38:39.719Z,20
2023-04-01T05:41:10.205Z,20
2023-04-01T05:43:41.270Z,21
2023-04-01T05:46:11.779Z,26
2023-04-01T05:48:42.662Z,21
2023-04-01T05:51:13.483Z,20
2023-04-01T05:53:43.801Z,25
2023-04-01T05:56:14.564Z,28
2023-04-01T05:58:45.157Z,32
2023-04-01T06:01:16.609Z,32
2023-04-01T06:03:46.737Z,33
2023-04-01T06:06:17.564Z,36
2023-04-01T06:08:48.150Z,32
2023-04-01T06:11:18.724Z,32
2023-04-01T06:13:49.991Z,30
2023-04-01T06:16:20.538Z,30
2023-04-01T06:18:51.020Z,29
2023-04-01T06:21:21.351Z,36
2023-04-01T06:23:52.102Z,32
2023-04-01T06:26:22.802Z,32
2023-04-01T06:28:52.945Z,29
2023-04-01T06:31:23.781Z,34
2023-04-01T06:33:54.162Z,28
2023-04-01T06:36:26.668Z,27
2023-04-01T06:38:57.256Z,27
2023-04-01T06:41:27.902Z,32
2023-04-01T06:43:59.069Z,20
2023-04-01T06:46:29.328Z,29
2023-04-01T06:48:59.399Z,32
2023-04-01T06:51:29.844Z,32
2023-04-01T06:54:00.252Z,28
2023-04-01T06:56:30.666Z,25
2023-04-01T06:59:01.439Z,21
2023-04-01T07:01:32.352Z,32
2023-04-01T07:04:03.112Z,28
2023-04-01T07:06:33.594Z,28
2023-04-01T07:09:05.099Z,39
2023-04-01T07:11:34.564Z,24
2023-04-01T07:14:06.422Z,28
2023-04-01T07:16:36.664Z,29
2023-04-01T07:19:07.564Z,28
2023-04-01T07:21:38.190Z,28
2023-04-01T07:24:08.460Z,31
2023-04-01T07:26:39.207Z,28
2023-04-01T07:29:10.424Z,35
2023-04-01T07:31:41.001Z,32
2023-04-01T07:34:12.474Z,39
2023-04-01T07:36:42.743Z,32
2023-04-01T07:39:13.314Z,39
2023-04-01T07:41:43.675Z,28
2023-04-01T07:44:14.134Z,32
2023-04-01T07:46:44.770Z,28
2023-04-01T07:49:15.255Z,36
2023-04-01T07:51:45.621Z,24
2023-04-01T07:54:16.226Z,28
2023-04-01T07:56:46.893Z,32
2023-04-01T07:59:15.681Z,24
2023-04-01T08:01:45.933Z,32
2023-04-01T08:04:16.407Z,20
2023-04-01T08:06:47.305Z,22
2023-04-01T08:09:17.670Z,29
2023-04-01T08:11:48.357Z,29
2023-04-01T08:14:18.484Z,27
2023-04-01T08:16:49.193Z,27
2023-04-01T08:19:19.718Z,29
2023-04-01T08:21:49.700Z,25
2023-04-01T08:24:21.485Z,32
2023-04-01T08:26:50.235Z,31
2023-04-01T08:29:20.394Z,29
2023-04-01T08:31:50.876Z,25
2023-04-01T08:34:20.852Z,20
2023-04-01T08:36:51.375Z,27
2023-04-01T08:39:21.914Z,25
2023-04-01T08:41:51.958Z,25
2023-04-01T08:44:22.551Z,20
2023-04-01T08:46:52.713Z,24
2023-04-01T08:49:23.241Z,72
2023-04-01T08:51:53.516Z,44
2023-04-01T08:54:23.973Z,40
2023-04-01T08:56:54.267Z,32
2023-04-01T08:59:24.333Z,32
2023-04-01T09:01:54.563Z,32
2023-04-01T09:04:24.758Z,35
2023-04-01T09:06:55.200Z,30
2023-04-01T09:09:25.448Z,28
2023-04-01T09:11:55.401Z,32
2023-04-01T09:14:25.330Z,28
2023-04-01T09:16:55.315Z,28
2023-04-01T09:19:28.849Z,32
2023-04-01T09:21:59.131Z,32
2023-04-01T09:24:29.348Z,32
2023-04-01T09:26:59.802Z,32
2023-04-01T09:29:29.323Z,33
2023-04-01T09:31:59.509Z,36
2023-04-01T09:34:30.461Z,44
2023-04-01T09:37:00.637Z,56
2023-04-01T09:39:30.477Z,39
2023-04-01T09:42:01.291Z,39
2023-04-01T09:44:31.679Z,67
2023-04-01T09:47:04.248Z,48
2023-04-01T09:49:34.481Z,36
2023-04-01T09:52:05.179Z,43
2023-04-01T09:54:37.876Z,39
2023-04-01T09:57:08.122Z,41
2023-04-01T09:59:38.256Z,32
2023-04-01T10:02:08.396Z,16
2023-04-01T10:04:42.866Z,20
2023-04-01T10:07:12.816Z,13
2023-04-01T10:09:42.909Z,8
2023-04-01T10:12:13.218Z,4
2023-04-01T10:14:43.077Z,5
2023-04-01T10:17:13.049Z,12
2023-04-01T10:19:45.641Z,8
2023-04-01T10:22:16.725Z,8
2023-04-01T10:24:46.769Z,7
2023-04-01T10:27:16.877Z,7
2023-04-01T10:29:46.914Z,8
2023-04-01T10:32:16.948Z,8
2023-04-01T10:34:46.734Z,4
2023-04-01T10:37:17.136Z,5
2023-04-01T10:39:48.301Z,8
2023-04-01T10:42:22.479Z,4
2023-04-01T10:44:52.711Z,8
2023-04-01T10:47:22.746Z,4
2023-04-01T10:49:53.003Z,8
2023-04-01T10:52:23.266Z,15
2023-04-01T10:54:53.402Z,12
2023-04-01T10:57:23.622Z,8
2023-04-01T10:59:53.741Z,10
2023-04-01T11:02:24.970Z,12
2023-04-01T11:04:54.907Z,12
2023-04-01T11:07:25.180Z,8
2023-04-01T11:09:55.386Z,8
2023-04-01T11:12:25.560Z,12
2023-04-01T11:14:55.528Z,8
2023-04-01T11:17:25.645Z,4
2023-04-01T11:19:55.562Z,7
2023-04-01T11:22:26.023Z,5
2023-04-01T11:24:55.856Z,8
2023-04-01T11:27:26.181Z,8
2023-04-01T11:29:59.976Z,8
2023-04-01T11:32:25.832Z,4
2023-04-01T11:34:55.955Z,8
2023-04-01T11:37:26.285Z,8
2023-04-01T11:39:57.764Z,7
2023-04-01T11:42:26.508Z,8
2023-04-01T11:44:57.074Z,11
2023-04-01T11:47:27.432Z,8
2023-04-01T11:49:57.600Z,8
2023-04-01T11:52:27.737Z,8
2023-04-01T11:54:58.243Z,12
2023-04-01T11:57:29.413Z,12
2023-04-01T11:59:59.563Z,8
2023-04-01T12:02:29.924Z,8
2023-04-01T12:05:00.023Z,12
2023-04-01T12:07:30.066Z,8
2023-04-01T12:10:00.242Z,12
2023-04-01T12:12:30.226Z,8
2023-04-01T12:15:00.813Z,8
2023-04-01T12:17:30.942Z,12
2023-04-01T12:20:00.958Z,12
2023-04-01T12:22:33.256Z,9
2023-04-01T12:25:01.002Z,12
2023-04-01T12:27:29.507Z,30
2023-04-01T12:29:59.384Z,21
2023-04-01T12:32:29.407Z,24
2023-04-01T12:34:59.564Z,16
2023-04-01T12:37:29.847Z,16
2023-04-01T12:39:59.908Z,13
2023-04-01T12:42:30.003Z,17
2023-04-01T12:44:59.794Z,15
2023-04-01T12:47:30.103Z,12
2023-04-01T12:50:00.107Z,16
2023-04-01T12:52:29.895Z,14
2023-04-01T12:55:00.965Z,12
2023-04-01T12:57:29.909Z,23
2023-04-01T13:00:00.118Z,18
2023-04-01T13:02:30.050Z,25
2023-04-01T13:05:03.004Z,15
2023-04-01T13:07:33.109Z,20
2023-04-01T13:10:03.137Z,19
2023-04-01T13:12:33.110Z,8
2023-04-01T13:15:05.734Z,8
2023-04-01T13:17:33.497Z,20
2023-04-01T13:20:05.897Z,12
2023-04-01T13:22:33.689Z,12
2023-04-01T13:25:03.581Z,11
2023-04-01T13:27:34.121Z,8
2023-04-01T13:30:04.316Z,10
2023-04-01T13:35:05.216Z,16
2023-04-01T13:37:36.283Z,18
2023-04-01T13:40:06.188Z,12
2023-04-01T13:42:36.674Z,12
2023-04-01T13:45:06.770Z,4
2023-04-01T13:47:37.580Z,6
2023-04-01T13:50:08.015Z,8
2023-04-01T13:52:37.983Z,8
2023-04-01T13:55:08.113Z,16
2023-04-01T13:57:38.378Z,12
2023-04-01T14:00:08.639Z,12
2023-04-01T14:02:38.579Z,8
2023-04-01T14:05:08.441Z,12
2023-04-01T14:07:38.942Z,8
2023-04-01T14:10:07.635Z,12
2023-04-01T14:12:37.661Z,7
2023-04-01T14:15:07.615Z,11
2023-04-01T14:17:37.798Z,4
2023-04-01T14:20:07.793Z,8
2023-04-01T14:22:38.260Z,12
2023-04-01T14:25:08.353Z,12
2023-04-01T14:27:38.805Z,8
2023-04-01T14:30:09.284Z,12
2023-04-01T14:32:39.412Z,5
2023-04-01T14:35:09.709Z,16
2023-04-01T14:37:39.938Z,13
2023-04-01T14:40:10.084Z,8
2023-04-01T14:42:40.343Z,12
2023-04-01T14:45:10.625Z,8
2023-04-01T14:47:40.943Z,16
2023-04-01T14:50:11.550Z,12
2023-04-01T14:52:41.542Z,8
2023-04-01T14:55:10.936Z,10
2023-04-01T14:57:41.356Z,12
2023-04-01T15:00:09.788Z,9
2023-04-01T15:02:38.611Z,9
2023-04-01T15:05:08.470Z,8
2023-04-01T15:07:39.098Z,12
2023-04-01T15:10:09.835Z,12
2023-04-01T15:12:40.577Z,11
2023-04-01T15:15:11.027Z,12
2023-04-01T15:17:42.565Z,16
2023-04-01T15:20:12.808Z,12
2023-04-01T15:22:43.080Z,15
2023-04-01T15:25:13.147Z,11
2023-04-01T15:27:43.789Z,36
2023-04-01T15:30:17.210Z,31
2023-04-01T15:32:47.353Z,24
2023-04-01T15:35:17.436Z,12
2023-04-01T15:37:46.020Z,16
2023-04-01T15:40:16.655Z,16
2023-04-01T15:42:47.056Z,26
2023-04-01T15:45:16.924Z,19
2023-04-01T15:47:47.994Z,16
2023-04-01T15:50:18.435Z,28
2023-04-01T15:52:48.440Z,32
2023-04-01T15:55:18.840Z,20
2023-04-01T15:57:48.919Z,20
2023-04-01T16:00:20.067Z,19
2023-04-01T16:02:50.438Z,13
2023-04-01T16:05:20.532Z,25
2023-04-01T16:07:50.487Z,20
2023-04-01T16:10:20.591Z,32
2023-04-01T16:12:50.743Z,29
2023-04-01T16:15:21.104Z,24
2023-04-01T16:17:51.277Z,20
2023-04-01T16:20:21.345Z,20
2023-04-01T16:22:51.475Z,25
2023-04-01T16:25:21.154Z,35
2023-04-01T16:27:52.515Z,20
2023-04-01T16:30:21.778Z,23
2023-04-01T16:32:52.041Z,12
2023-04-01T16:35:21.887Z,20
2023-04-01T16:37:51.819Z,12
2023-04-01T16:40:21.905Z,21
2023-04-01T16:42:51.997Z,23
2023-04-01T16:45:24.187Z,16
2023-04-01T16:47:54.741Z,16
2023-04-01T16:50:26.885Z,15
2023-04-01T16:52:57.015Z,14
2023-04-01T16:55:27.029Z,16
2023-04-01T16:57:57.289Z,19
2023-04-01T17:00:27.345Z,21
2023-04-01T17:02:57.502Z,12
2023-04-01T17:05:28.008Z,20
2023-04-01T17:08:00.155Z,13
2023-04-01T17:10:29.903Z,12
2023-04-01T17:13:00.596Z,16
2023-04-01T17:15:30.974Z,16
2023-04-01T17:17:59.367Z,20
2023-04-01T17:20:29.493Z,28
2023-04-01T17:22:59.906Z,24
2023-04-01T17:25:29.671Z,26
2023-04-01T17:27:59.827Z,36
2023-04-01T17:30:30.116Z,28
2023-04-01T17:33:00.327Z,32
2023-04-01T17:35:28.946Z,35
2023-04-01T17:37:59.027Z,32
2023-04-01T17:40:29.054Z,30
2023-04-01T17:42:59.199Z,35
2023-04-01T17:45:29.305Z,31
2023-04-01T17:47:59.477Z,35
2023-04-01T17:50:29.545Z,32
2023-04-01T17:52:59.526Z,28
2023-04-01T17:55:30.245Z,36
2023-04-01T17:58:00.346Z,32
2023-04-01T18:00:38.638Z,34
2023-04-01T18:03:00.962Z,34
2023-04-01T18:05:30.621Z,40
2023-04-01T18:08:00.365Z,35
2023-04-01T18:10:30.397Z,34
2023-04-01T18:13:00.305Z,32
2023-04-01T18:15:30.324Z,36
2023-04-01T18:18:00.311Z,36
2023-04-01T18:20:33.036Z,43
2023-04-01T18:23:06.841Z,43
2023-04-01T18:25:37.914Z,40
2023-04-01T18:28:07.769Z,36
2023-04-01T18:30:38.181Z,40
2023-04-01T18:33:12.948Z,39
2023-04-01T18:35:43.384Z,40
2023-04-01T18:38:13.421Z,37
2023-04-01T18:40:43.510Z,44
2023-04-01T18:43:14.057Z,47
2023-04-01T18:45:44.101Z,44
2023-04-01T18:48:14.420Z,47
2023-04-01T18:50:44.522Z,44
2023-04-01T18:53:14.703Z,44
2023-04-01T18:55:44.948Z,45
2023-04-01T18:58:15.228Z,48
2023-04-01T19:00:45.275Z,47
2023-04-01T19:03:15.359Z,43
2023-04-01T19:05:46.267Z,37
2023-04-01T19:08:16.286Z,36
2023-04-01T19:10:46.341Z,32
2023-04-01T19:13:16.713Z,32
2023-04-01T19:15:46.978Z,35
2023-04-01T19:18:16.979Z,36
2023-04-01T19:20:47.090Z,32
2023-04-01T19:23:15.315Z,36
2023-04-01T19:25:46.644Z,32
2023-04-01T19:28:17.921Z,32
2023-04-01T19:30:48.306Z,31
2023-04-01T19:33:18.051Z,32
2023-04-01T19:35:48.054Z,33
2023-04-01T19:38:19.458Z,32
2023-04-01T19:40:50.335Z,28
2023-04-01T19:43:23.003Z,32
2023-04-01T19:45:52.886Z,35
2023-04-01T19:48:22.294Z,29
2023-04-01T19:50:52.324Z,33
2023-04-01T19:53:23.310Z,31
2023-04-01T19:55:54.827Z,36
2023-04-01T19:58:27.018Z,35
2023-04-01T20:00:56.984Z,35
2023-04-01T20:03:27.289Z,36
2023-04-01T20:05:57.852Z,36
2023-04-01T20:08:28.286Z,35
2023-04-01T20:10:58.413Z,32
2023-04-01T20:13:28.898Z,32
2023-04-01T20:15:59.353Z,31
2023-04-01T20:18:29.372Z,29
2023-04-01T20:21:00.091Z,32
2023-04-01T20:23:30.022Z,32
2023-04-01T20:26:00.004Z,33
2023-04-01T20:28:30.404Z,32
2023-04-01T20:31:01.216Z,32
2023-04-01T20:33:31.451Z,28
2023-04-01T20:36:01.848Z,32
2023-04-01T20:38:32.138Z,28
2023-04-01T20:41:02.244Z,31
2023-04-01T20:43:32.589Z,28
2023-04-01T20:46:02.709Z,27
2023-04-01T20:48:33.242Z,28
2023-04-01T20:51:02.211Z,28
2023-04-01T20:53:32.285Z,29
2023-04-01T20:56:02.687Z,28
2023-04-01T20:58:33.111Z,28
2023-04-01T21:01:03.736Z,24
2023-04-01T21:03:34.013Z,32
2023-04-01T21:06:04.253Z,26
2023-04-01T21:08:34.568Z,25
2023-04-01T21:11:04.677Z,25
2023-04-01T21:13:34.525Z,24
2023-04-01T21:16:03.398Z,20
2023-04-01T21:18:34.466Z,22
2023-04-01T21:21:05.366Z,23
2023-04-01T21:23:35.614Z,28
2023-04-01T21:26:05.744Z,24
2023-04-01T21:28:36.074Z,35
2023-04-01T21:31:06.373Z,28
2023-04-01T21:33:36.238Z,34
2023-04-01T21:36:08.524Z,32
2023-04-01T21:38:43.069Z,28
2023-04-01T21:41:13.352Z,36
2023-04-01T21:43:43.337Z,36
2023-04-01T21:46:15.498Z,36
2023-04-01T21:48:45.796Z,32
2023-04-01T21:51:16.880Z,34
2023-04-01T21:53:47.030Z,32
2023-04-01T21:56:18.334Z,32
2023-04-01T21:58:48.877Z,32
2023-04-01T22:01:19.201Z,34
2023-04-01T22:03:49.225Z,32
2023-04-01T22:06:20.769Z,36
2023-04-01T22:08:52.043Z,36
2023-04-01T22:11:22.862Z,40
2023-04-01T22:13:53.169Z,31
2023-04-01T22:16:23.218Z,36
2023-04-01T22:18:53.176Z,35
2023-04-01T22:21:23.512Z,38
2023-04-01T22:23:54.009Z,36
2023-04-01T22:26:24.897Z,36
2023-04-01T22:28:55.475Z,42
2023-04-01T22:31:29.911Z,40
2023-04-01T22:34:00.476Z,38
2023-04-01T22:36:29.256Z,40
2023-04-01T22:39:01.673Z,44
2023-04-01T22:41:41.022Z,40
2023-04-01T22:44:11.028Z,40
2023-04-01T22:46:41.926Z,40
2023-04-01T22:49:12.346Z,40
2023-04-01T22:51:42.455Z,44
2023-04-01T22:54:12.670Z,48
2023-04-01T22:56:43.221Z,44
2023-04-01T22:59:13.404Z,44
2023-04-01T23:01:45.313Z,46
2023-04-01T23:04:13.555Z,44
2023-04-01T23:06:45.444Z,48
2023-04-01T23:09:16.650Z,44
2023-04-01T23:11:46.836Z,41
2023-04-01T23:14:17.769Z,49
2023-04-01T23:16:47.989Z,44
2023-04-01T23:19:18.482Z,47
2023-04-01T23:21:49.087Z,45
2023-04-01T23:24:19.026Z,44
2023-04-01T23:26:49.140Z,45
2023-04-01T23:29:19.339Z,40
2023-04-01T23:31:50.966Z,41
2023-04-01T23:34:21.461Z,48
2023-04-01T23:36:52.663Z,44
2023-04-01T23:39:22.859Z,45
2023-04-01T23:41:53.275Z,48
2023-04-01T23:44:23.253Z,43
2023-04-01T23:46:54.243Z,46
2023-04-01T23:49:24.646Z,40
2023-04-01T23:51:54.679Z,40
2023-04-01T23:54:24.843Z,42
2023-04-01T23:57:00.267Z,36
2023-04-01T23:59:30.478Z,40
